Terminal Aerodrome Forecast
Issued by NWS

Home | Current Version | Previous Version | Text Only | Print | Product List | Glossary On
Versions: 1 2 3 4 5 6 7 8 9 10 11 12 13 14 15 16 17 18 19 20 21 22 23
000
FTUS43 KGRR 222300
TAFJXN
TAF
KJXN 222324Z 2300/2324 00000KT P6SM SCT024 SCT050
      TEMPO 2300/2301 BKN024
     FM230400 10003KT 4SM BR BKN050
     FM230700 08003KT 1 1/2SM BR OVC015
     FM230900 08003KT 1/4SM FG OVC001
     FM231500 09004KT 4SM HZ OVC050
     FM231600 10005KT 6SM HZ BKN050=

USA.gov is the U.S. government's official web portal to all federal, state and local government web resources and services.